Time;durP1;ratioP1;P1;durP2;ratioP2;P2;SDS_P1;SDS_P2;PMS_P1;PMS_P2;Temp;Humidity;BMP_temperature;BMP_pressure;BME280_temperature;BME280_humidity;BME280_pressure;Samples;Min_cycle;Max_cycle;Signal;HPM_P1;HPM_P2
2023/08/04 00:00:09;;;;;;;;;9.00;7.67;;;;;21.63;100.00;100974.78;5087191;27;47256;-76
2023/08/04 00:02:35;;;;;;;;;8.00;8.00;;;;;21.64;100.00;100980.09;5085049;27;45819;-78
2023/08/04 00:05:01;;;;;;;;;9.67;5.67;;;;;21.59;100.00;100981.16;5083615;27;45476;-76
2023/08/04 00:07:26;;;;;;;;;9.00;8.33;;;;;21.65;100.00;100980.97;5086845;27;45447;-76
2023/08/04 00:09:51;;;;;;;;;8.67;6.67;;;;;21.50;100.00;100976.06;5083164;27;48020;-77
2023/08/04 00:12:16;;;;;;;;;7.67;7.33;;;;;21.44;100.00;100980.72;5087355;27;67351;-76
2023/08/04 00:14:42;;;;;;;;;7.00;7.00;;;;;21.52;100.00;100993.94;5086223;27;59045;-77
2023/08/04 00:17:08;;;;;;;;;10.00;7.00;;;;;21.56;100.00;100989.31;5087282;27;63130;-76
2023/08/04 00:19:34;;;;;;;;;11.33;9.33;;;;;21.46;100.00;100986.03;5083021;27;46350;-79
2023/08/04 00:21:59;;;;;;;;;8.00;8.00;;;;;21.36;100.00;100990.84;5087576;27;67394;-75
2023/08/04 00:24:24;;;;;;;;;8.00;8.00;;;;;21.32;100.00;100986.47;5090700;27;52967;-76
2023/08/04 00:26:50;;;;;;;;;9.00;9.00;;;;;21.39;100.00;100996.09;5088062;27;45516;-77
2023/08/04 00:29:15;;;;;;;;;7.00;7.00;;;;;21.32;100.00;100997.22;5085034;27;69023;-76
2023/08/04 00:31:40;;;;;;;;;10.00;7.00;;;;;21.33;100.00;100992.72;5087777;27;65387;-76
2023/08/04 00:34:05;;;;;;;;;8.00;8.00;;;;;21.38;100.00;100988.97;5087369;27;64804;-75
2023/08/04 00:36:31;;;;;;;;;6.00;6.00;;;;;21.40;100.00;100996.97;5086602;27;45676;-76
2023/08/04 00:38:56;;;;;;;;;7.33;7.00;;;;;21.34;100.00;100994.47;5084126;27;70687;-76
2023/08/04 00:41:22;;;;;;;;;9.67;8.67;;;;;21.42;100.00;100997.81;5087807;27;64554;-78
2023/08/04 00:43:47;;;;;;;;;7.00;7.00;;;;;21.39;100.00;100988.03;5086476;27;65180;-77
2023/08/04 00:46:13;;;;;;;;;5.00;5.00;;;;;21.34;100.00;100992.66;5087534;27;61722;-78
2023/08/04 00:48:39;;;;;;;;;7.00;7.00;;;;;21.34;100.00;101003.41;5086639;27;60453;-76
2023/08/04 00:51:04;;;;;;;;;9.67;9.00;;;;;21.37;100.00;100997.97;5086919;27;45433;-76
2023/08/04 00:53:30;;;;;;;;;9.33;7.00;;;;;21.33;100.00;101001.66;5085639;27;45554;-77
2023/08/04 00:55:55;;;;;;;;;6.33;5.67;;;;;21.37;100.00;100997.97;5088815;27;45528;-77
2023/08/04 00:58:22;;;;;;;;;8.33;6.00;;;;;21.36;100.00;100998.00;5099325;27;65041;-75
2023/08/04 01:00:47;;;;;;;;;6.67;6.00;;;;;21.41;100.00;101002.31;5106869;27;45521;-77
2023/08/04 01:03:12;;;;;;;;;8.00;7.00;;;;;21.43;100.00;100997.78;5092497;27;59475;-76
2023/08/04 01:05:55;;;;;;;;;7.33;6.33;;;;;21.43;100.00;101005.84;5088363;27;61449;-76
2023/08/04 01:08:27;;;;;;;;;7.67;7.00;;;;;21.48;100.00;101000.31;5091790;27;47311;-77
2023/08/04 01:10:57;;;;;;;;;8.00;8.00;;;;;21.48;100.00;101012.88;5090334;27;45520;-77
2023/08/04 01:13:24;;;;;;;;;8.33;7.00;;;;;21.40;100.00;101005.91;5089174;27;45437;-77
2023/08/04 01:15:51;;;;;;;;;10.00;8.00;;;;;21.44;100.00;101006.72;5091873;27;45536;-77
2023/08/04 01:18:22;;;;;;;;;9.00;7.00;;;;;21.35;100.00;101002.47;5091370;27;46650;-77
2023/08/04 01:20:48;;;;;;;;;9.00;9.00;;;;;21.34;100.00;101008.78;5087916;27;62559;-76
2023/08/04 01:23:14;;;;;;;;;9.00;9.00;;;;;21.32;100.00;101007.09;5093073;27;45635;-78
2023/08/04 01:25:40;;;;;;;;;7.67;7.67;;;;;21.33;100.00;101004.34;5088623;27;45687;-76
2023/08/04 01:28:09;;;;;;;;;8.67;8.00;;;;;21.31;100.00;101008.91;5089578;27;46461;-77
2023/08/04 01:30:35;;;;;;;;;7.33;7.33;;;;;21.27;100.00;101007.19;5089438;27;45544;-76
2023/08/04 01:33:00;;;;;;;;;9.00;7.00;;;;;21.29;100.00;101005.34;5088365;27;64097;-75
2023/08/04 01:35:26;;;;;;;;;8.33;8.33;;;;;21.24;100.00;101006.41;5090384;27;45583;-76
2023/08/04 01:37:51;;;;;;;;;8.33;7.00;;;;;21.23;100.00;101002.84;5088268;27;58135;-77
2023/08/04 01:40:16;;;;;;;;;7.00;7.00;;;;;21.23;100.00;101005.53;5087084;27;45487;-76
2023/08/04 01:42:42;;;;;;;;;7.67;7.00;;;;;21.26;100.00;101012.63;5088312;27;61984;-76
2023/08/04 01:45:08;;;;;;;;;10.00;7.00;;;;;21.17;100.00;101001.22;5090310;27;45562;-77
2023/08/04 01:47:33;;;;;;;;;10.33;7.00;;;;;21.17;100.00;101014.66;5095457;27;46822;-78
2023/08/04 01:49:58;;;;;;;;;6.67;6.33;;;;;21.16;100.00;101020.06;5095955;27;45508;-77
2023/08/04 01:52:24;;;;;;;;;9.33;6.00;;;;;21.17;100.00;101021.81;5090287;27;59236;-78
2023/08/04 01:54:50;;;;;;;;;7.00;7.00;;;;;21.17;100.00;101019.13;5091977;27;51760;-78
2023/08/04 01:57:15;;;;;;;;;7.00;7.00;;;;;21.03;100.00;101027.59;5090605;27;46985;-78
2023/08/04 01:59:40;;;;;;;;;8.00;6.33;;;;;21.02;100.00;101024.97;5091163;27;66249;-76
2023/08/04 02:02:06;;;;;;;;;8.00;8.00;;;;;21.00;100.00;101030.38;5089509;27;60199;-77
2023/08/04 02:04:31;;;;;;;;;8.33;8.33;;;;;21.01;100.00;101036.63;5081108;27;61966;-76
2023/08/04 02:06:56;;;;;;;;;7.00;7.00;;;;;21.14;100.00;101038.88;5093754;27;65106;-77
2023/08/04 02:09:23;;;;;;;;;8.00;8.00;;;;;21.12;100.00;101027.31;5090472;27;46046;-77
2023/08/04 02:11:48;;;;;;;;;8.00;8.00;;;;;21.03;100.00;101024.91;5089841;27;45501;-77
2023/08/04 02:14:14;;;;;;;;;7.67;7.67;;;;;20.98;100.00;101032.22;5087158;27;45467;-76
2023/08/04 02:16:39;;;;;;;;;9.33;8.00;;;;;20.89;100.00;101038.75;5095597;27;46217;-77
2023/08/04 02:19:06;;;;;;;;;7.33;7.33;;;;;20.92;100.00;101038.63;5091230;27;62038;-78
2023/08/04 02:21:32;;;;;;;;;10.00;9.00;;;;;20.95;100.00;101036.81;5089872;27;45444;-77
2023/08/04 02:23:57;;;;;;;;;8.67;8.00;;;;;20.93;100.00;101040.41;5092446;27;61924;-77
2023/08/04 02:26:23;;;;;;;;;8.00;8.00;;;;;20.97;100.00;101032.25;5094154;27;47184;-77
2023/08/04 02:28:50;;;;;;;;;8.33;7.00;;;;;20.90;100.00;101036.94;5089670;27;45878;-76
2023/08/04 02:31:17;;;;;;;;;6.33;6.33;;;;;20.89;100.00;101036.06;5089825;27;45461;-78
2023/08/04 02:33:42;;;;;;;;;7.67;6.33;;;;;20.87;100.00;101035.19;5088515;27;45951;-77
2023/08/04 02:36:08;;;;;;;;;9.00;9.00;;;;;20.94;100.00;101035.94;5088722;27;69980;-76
2023/08/04 02:38:33;;;;;;;;;9.33;7.33;;;;;20.86;100.00;101040.63;5087278;27;68980;-77
2023/08/04 02:41:05;;;;;;;;;9.33;9.33;;;;;20.84;100.00;101040.66;5089742;27;49466;-77
2023/08/04 02:43:30;;;;;;;;;9.00;9.00;;;;;20.85;100.00;101047.78;5087950;27;45507;-77
2023/08/04 02:45:56;;;;;;;;;11.00;10.00;;;;;20.79;100.00;101045.28;5089335;27;47218;-77
2023/08/04 02:48:21;;;;;;;;;9.00;8.00;;;;;20.82;100.00;101045.19;5088498;27;46885;-76
2023/08/04 02:50:47;;;;;;;;;8.33;7.00;;;;;20.75;100.00;101040.91;5088445;27;66251;-76
2023/08/04 02:53:14;;;;;;;;;10.00;9.00;;;;;20.74;100.00;101051.72;5089661;27;45550;-76
2023/08/04 02:55:40;;;;;;;;;9.33;7.33;;;;;20.73;100.00;101047.28;5089155;27;47386;-77
2023/08/04 02:58:06;;;;;;;;;11.67;10.00;;;;;20.74;100.00;101043.66;5090629;27;45953;-76
2023/08/04 03:00:31;;;;;;;;;11.67;8.67;;;;;20.70;100.00;101045.53;5089620;27;45426;-76
2023/08/04 03:02:56;;;;;;;;;9.00;8.00;;;;;20.73;100.00;101058.00;5081414;27;63194;-77
2023/08/04 03:05:23;;;;;;;;;10.00;9.33;;;;;20.66;100.00;101057.25;5081122;27;47105;-78
2023/08/04 03:07:48;;;;;;;;;11.33;8.33;;;;;20.76;100.00;101064.16;5094336;27;45430;-76
2023/08/04 03:10:13;;;;;;;;;10.67;10.67;;;;;20.74;100.00;101065.13;5098337;27;61679;-76
2023/08/04 03:12:38;;;;;;;;;12.33;9.00;;;;;20.72;100.00;101073.22;5094822;27;61270;-78
2023/08/04 03:15:04;;;;;;;;;12.00;9.00;;;;;20.64;100.00;101073.41;5086548;27;69654;-77
2023/08/04 03:17:30;;;;;;;;;10.33;10.33;;;;;20.67;100.00;101067.09;5089267;27;45507;-76
2023/08/04 03:19:55;;;;;;;;;12.00;9.00;;;;;20.66;100.00;101068.00;5087644;27;56664;-76
2023/08/04 03:22:20;;;;;;;;;9.67;9.00;;;;;20.64;100.00;101068.03;5084091;27;60180;-77
2023/08/04 03:24:46;;;;;;;;;11.67;10.00;;;;;20.66;100.00;101068.88;5087941;27;63030;-76
2023/08/04 03:27:11;;;;;;;;;11.00;10.67;;;;;20.64;100.00;101069.84;5088444;27;68741;-76
2023/08/04 03:29:36;;;;;;;;;10.33;9.00;;;;;20.72;100.00;101078.59;5103599;27;63158;-76
2023/08/04 03:32:02;;;;;;;;;10.00;10.00;;;;;20.70;100.00;101085.78;5088233;27;64486;-77
2023/08/04 03:34:28;;;;;;;;;12.67;11.67;;;;;20.60;100.00;101079.78;5088238;27;47030;-76
2023/08/04 03:36:53;;;;;;;;;8.67;8.67;;;;;20.62;100.00;101077.94;5087816;27;65116;-75
2023/08/04 03:39:19;;;;;;;;;10.00;8.67;;;;;20.58;100.00;101088.81;5089179;27;45888;-77
2023/08/04 03:41:44;;;;;;;;;11.00;10.00;;;;;20.58;100.00;101087.00;5087183;27;45386;-75
2023/08/04 03:44:09;;;;;;;;;10.67;10.33;;;;;20.58;100.00;101097.72;5084074;27;68306;-77
2023/08/04 03:46:35;;;;;;;;;8.00;8.00;;;;;20.60;100.00;101100.38;5081286;27;66336;-76
2023/08/04 03:49:00;;;;;;;;;11.67;11.00;;;;;20.61;100.00;101104.81;5090985;27;45574;-77
2023/08/04 03:51:25;;;;;;;;;11.00;10.00;;;;;20.59;100.00;101104.84;5092832;27;65458;-77
2023/08/04 03:53:50;;;;;;;;;12.33;10.00;;;;;20.64;100.00;101108.28;5087627;27;70377;-77
2023/08/04 03:56:16;;;;;;;;;10.33;10.33;;;;;20.61;100.00;101102.13;5090669;27;45505;-78
2023/08/04 03:58:41;;;;;;;;;14.00;9.00;;;;;20.67;100.00;101107.34;5091256;27;61947;-77
2023/08/04 04:01:07;;;;;;;;;10.00;9.67;;;;;20.65;100.00;101099.31;5088390;27;54953;-76
2023/08/04 04:03:32;;;;;;;;;11.00;9.00;;;;;20.64;100.00;101097.56;5084256;27;46199;-77
2023/08/04 04:05:57;;;;;;;;;12.00;9.00;;;;;20.77;100.00;101118.69;5087822;27;56324;-76
2023/08/04 04:08:23;;;;;;;;;9.33;8.67;;;;;20.75;100.00;101113.38;5087245;27;64047;-76
2023/08/04 04:10:48;;;;;;;;;10.67;10.00;;;;;20.75;100.00;101109.81;5084580;27;45354;-76
2023/08/04 04:13:13;;;;;;;;;13.33;11.00;;;;;20.71;100.00;101119.75;5083276;27;71279;-78
2023/08/04 04:15:39;;;;;;;;;9.67;9.67;;;;;20.70;100.00;101125.16;5078634;27;66676;-76
2023/08/04 04:18:04;;;;;;;;;12.67;10.00;;;;;20.76;100.00;101123.19;5092597;27;62695;-78
2023/08/04 04:20:29;;;;;;;;;9.33;9.33;;;;;20.78;100.00;101125.84;5085313;27;59445;-78
2023/08/04 04:22:55;;;;;;;;;10.67;9.00;;;;;20.69;100.00;101129.66;5084714;27;70046;-77
2023/08/04 04:25:20;;;;;;;;;12.00;11.00;;;;;20.73;100.00;101131.34;5087304;27;63249;-78
2023/08/04 04:27:45;;;;;;;;;10.33;10.33;;;;;20.70;100.00;101134.09;5088276;27;46288;-76
2023/08/04 04:30:11;;;;;;;;;12.33;11.00;;;;;20.73;100.00;101136.69;5087500;27;52004;-78
2023/08/04 04:32:36;;;;;;;;;12.67;10.33;;;;;20.73;100.00;101141.19;5088876;27;65494;-77
2023/08/04 04:35:01;;;;;;;;;13.00;10.00;;;;;20.73;100.00;101138.50;5091379;27;59825;-77
2023/08/04 04:37:27;;;;;;;;;12.67;11.00;;;;;20.79;100.00;101139.22;5090950;27;50497;-77
2023/08/04 04:39:52;;;;;;;;;12.00;10.00;;;;;20.76;100.00;101138.41;5087918;27;63445;-77
2023/08/04 04:42:17;;;;;;;;;10.00;9.33;;;;;20.79;100.00;101144.59;5090742;27;67756;-78
2023/08/04 04:44:43;;;;;;;;;9.00;9.00;;;;;20.74;100.00;101148.31;5091033;27;59544;-77
2023/08/04 04:47:09;;;;;;;;;11.67;10.00;;;;;20.75;100.00;101148.28;5087094;27;45637;-77
2023/08/04 04:49:34;;;;;;;;;12.67;11.00;;;;;20.77;100.00;101148.22;5089029;27;45878;-76
2023/08/04 04:52:00;;;;;;;;;13.33;10.33;;;;;20.70;100.00;101146.63;5091785;27;47579;-76
2023/08/04 04:54:25;;;;;;;;;14.00;11.00;;;;;20.70;100.00;101152.00;5091545;27;45599;-77
2023/08/04 04:56:51;;;;;;;;;13.67;11.33;;;;;20.75;100.00;101155.44;5091653;27;45395;-76
2023/08/04 04:59:16;;;;;;;;;13.00;13.00;;;;;20.82;100.00;101154.34;5091925;27;45632;-76
2023/08/04 05:01:41;;;;;;;;;13.67;12.00;;;;;20.77;100.00;101142.84;5088123;27;46649;-77
2023/08/04 05:04:07;;;;;;;;;11.67;11.67;;;;;20.80;100.00;101150.84;5081666;27;46116;-77
2023/08/04 05:06:33;;;;;;;;;13.33;12.33;;;;;20.78;100.00;101164.31;5091264;27;45446;-76
2023/08/04 05:08:58;;;;;;;;;14.33;13.00;;;;;20.74;100.00;101162.63;5090624;27;63505;-78
2023/08/04 05:11:23;;;;;;;;;12.33;10.00;;;;;20.73;100.00;101162.66;5089707;27;71116;-78
2023/08/04 05:13:49;;;;;;;;;13.67;12.67;;;;;20.75;100.00;101171.53;5085558;27;45471;-76
2023/08/04 05:16:14;;;;;;;;;16.00;15.00;;;;;20.79;100.00;101167.88;5088217;27;61772;-76
2023/08/04 05:18:39;;;;;;;;;14.00;13.00;;;;;20.82;100.00;101157.03;5088415;27;46915;-77
2023/08/04 05:21:04;;;;;;;;;13.00;11.33;;;;;20.85;100.00;101163.22;5166003;22;69941;-78
2023/08/04 05:23:30;;;;;;;;;16.00;13.33;;;;;20.92;100.00;101167.50;5049417;28;69389;-78
2023/08/04 05:25:55;;;;;;;;;14.00;13.33;;;;;20.89;100.00;101177.44;5047460;28;45582;-77
2023/08/04 05:28:28;;;;;;;;;14.00;14.00;;;;;20.89;100.00;101164.03;5050434;28;45552;-79
2023/08/04 05:31:04;;;;;;;;;14.33;12.00;;;;;20.89;100.00;101169.41;5050306;28;47674;-77
2023/08/04 05:33:31;;;;;;;;;14.67;13.00;;;;;20.85;100.00;101168.59;5051401;28;45959;-78
2023/08/04 05:35:57;;;;;;;;;15.00;14.00;;;;;20.82;100.00;101176.69;5052624;28;45491;-76
2023/08/04 05:38:23;;;;;;;;;16.00;16.00;;;;;20.89;100.00;101167.59;5050329;28;45866;-77
2023/08/04 05:40:49;;;;;;;;;15.33;13.00;;;;;20.91;100.00;101180.97;5050776;28;46446;-77
2023/08/04 05:43:14;;;;;;;;;15.67;14.00;;;;;20.97;100.00;101179.91;5049782;28;45782;-76
2023/08/04 05:45:42;;;;;;;;;15.00;11.67;;;;;21.00;100.00;101191.47;5051733;28;45470;-79
2023/08/04 05:48:07;;;;;;;;;15.00;14.00;;;;;20.95;100.00;101187.13;5050288;28;46920;-78
2023/08/04 05:50:33;;;;;;;;;16.67;14.33;;;;;20.99;100.00;101189.72;5049841;28;46451;-78
2023/08/04 05:52:58;;;;;;;;;16.67;15.00;;;;;21.03;100.00;101190.50;5049325;28;45854;-79
2023/08/04 05:55:24;;;;;;;;;19.00;15.33;;;;;21.02;100.00;101192.28;5066480;27;45503;-81
2023/08/04 05:57:52;;;;;;;;;19.00;16.33;;;;;21.03;100.00;101199.41;5049819;28;45493;-81
2023/08/04 06:00:18;;;;;;;;;11.67;11.67;;;;;21.00;100.00;101191.47;5049751;28;63256;-81
2023/08/04 06:02:44;;;;;;;;;16.00;13.67;;;;;21.11;100.00;101196.56;5050150;28;45491;-80
2023/08/04 06:05:13;;;;;;;;;17.67;16.00;;;;;21.10;100.00;101203.72;5053412;28;45527;-81
2023/08/04 06:07:39;;;;;;;;;13.67;13.00;;;;;21.11;100.00;101200.13;5053569;28;45945;-79
2023/08/04 06:10:05;;;;;;;;;15.00;15.00;;;;;21.12;100.00;101207.25;5048966;28;46543;-77
2023/08/04 06:12:30;;;;;;;;;13.33;13.00;;;;;21.13;100.00;101210.81;5049226;28;45544;-79
2023/08/04 06:14:56;;;;;;;;;22.00;19.00;;;;;21.16;100.00;101218.78;5055927;28;45467;-79
2023/08/04 06:17:21;;;;;;;;;19.00;15.67;;;;;21.19;100.00;101230.31;5048211;28;54968;-81
2023/08/04 06:19:46;;;;;;;;;15.67;14.67;;;;;21.21;100.00;101222.25;5047139;28;51069;-80
2023/08/04 06:22:15;;;;;;;;;17.00;15.67;;;;;21.17;100.00;101233.97;5047402;28;68497;-81
2023/08/04 06:24:41;;;;;;;;;17.67;15.33;;;;;21.27;100.00;101237.31;5046869;28;45628;-80
2023/08/04 06:27:07;;;;;;;;;18.00;15.00;;;;;21.28;100.00;101226.50;5049113;28;45542;-79
2023/08/04 06:29:33;;;;;;;;;17.00;16.00;;;;;21.24;100.00;101232.88;5049724;28;47271;-78
2023/08/04 06:31:58;;;;;;;;;17.67;14.33;;;;;21.29;100.00;101240.81;5048422;28;45755;-79
2023/08/04 06:34:23;;;;;;;;;14.67;12.00;;;;;21.36;100.00;101234.38;5049722;28;63450;-79
2023/08/04 06:36:49;;;;;;;;;14.33;14.33;;;;;21.41;100.00;101243.19;5049626;28;45509;-78
2023/08/04 06:39:14;;;;;;;;;20.00;17.00;;;;;21.44;100.00;101237.75;5049396;28;46811;-79
2023/08/04 06:41:41;;;;;;;;;16.33;15.33;;;;;21.44;100.00;101246.69;5043232;28;67569;-79
2023/08/04 06:44:06;;;;;;;;;18.00;15.00;;;;;21.51;100.00;101239.34;5047837;28;45482;-81
2023/08/04 06:46:32;;;;;;;;;16.00;14.67;;;;;21.49;100.00;101241.19;5051118;28;45468;-81
2023/08/04 06:48:57;;;;;;;;;18.33;15.00;;;;;21.51;100.00;101242.03;5046935;28;46274;-79
2023/08/04 06:51:22;;;;;;;;;16.00;13.00;;;;;21.56;100.00;101250.84;5047787;28;62738;-80
2023/08/04 06:53:48;;;;;;;;;19.33;15.00;;;;;21.54;100.00;101250.00;5047653;28;61602;-79
2023/08/04 06:56:13;;;;;;;;;15.33;13.00;;;;;21.68;100.00;101249.66;5047899;28;61399;-80
2023/08/04 06:58:38;;;;;;;;;14.00;10.00;;;;;21.62;100.00;101252.47;5046076;28;65426;-81
2023/08/04 07:01:04;;;;;;;;;16.00;15.00;;;;;21.66;100.00;101252.34;5041644;28;66730;-80
2023/08/04 07:03:29;;;;;;;;;19.67;18.33;;;;;21.70;100.00;101258.53;5045683;28;52076;-79
2023/08/04 07:05:54;;;;;;;;;13.00;13.00;;;;;21.80;100.00;101262.72;5048203;28;61311;-78
2023/08/04 07:08:20;;;;;;;;;14.67;14.33;;;;;21.82;100.00;101265.34;5047256;28;69114;-78
2023/08/04 07:10:45;;;;;;;;;15.33;12.33;;;;;21.95;100.00;101251.53;5043475;28;54025;-78
2023/08/04 07:13:10;;;;;;;;;16.33;14.00;;;;;21.94;100.00;101255.16;5047554;28;60684;-79
2023/08/04 07:15:36;;;;;;;;;14.67;11.67;;;;;22.00;100.00;101253.19;5048352;28;45496;-78
2023/08/04 07:18:02;;;;;;;;;15.67;13.33;;;;;22.04;100.00;101252.16;5048529;28;47397;-81
2023/08/04 07:20:28;;;;;;;;;15.00;13.00;;;;;22.14;100.00;101269.81;5048448;28;45616;-81
2023/08/04 07:22:53;;;;;;;;;18.00;15.00;;;;;22.20;100.00;101264.25;5049677;28;45485;-81
2023/08/04 07:25:19;;;;;;;;;14.67;13.00;;;;;22.25;100.00;101270.38;5051547;28;45636;-82
2023/08/04 07:27:45;;;;;;;;;14.00;13.00;;;;;22.32;100.00;101261.22;5048808;28;47460;-82
2023/08/04 07:30:11;;;;;;;;;12.67;12.67;;;;;22.44;100.00;101271.59;5048894;28;50987;-81
2023/08/04 07:32:36;;;;;;;;;12.67;11.67;;;;;22.54;100.00;101280.25;5049822;28;45426;-81
2023/08/04 07:35:02;;;;;;;;;14.33;11.33;;;;;22.62;100.00;101271.94;5050800;28;45374;-81
2023/08/04 07:37:28;;;;;;;;;16.00;11.33;;;;;22.66;100.00;101268.22;5049224;28;46817;-83
2023/08/04 07:39:54;;;;;;;;;17.33;12.33;;;;;22.74;100.00;101276.91;5049548;28;45437;-81
2023/08/04 07:42:19;;;;;;;;;13.00;11.67;;;;;22.79;100.00;101279.47;5046100;28;64726;-85
2023/08/04 07:44:44;;;;;;;;;13.00;11.67;;;;;22.85;100.00;101274.78;5051421;28;63334;-83
2023/08/04 07:47:10;;;;;;;;;10.67;10.67;;;;;22.93;100.00;101282.63;5046757;28;72767;-81
2023/08/04 07:49:35;;;;;;;;;12.33;11.33;;;;;23.02;100.00;101289.53;5046933;28;66159;-82
2023/08/04 07:52:00;;;;;;;;;14.67;12.00;;;;;22.99;100.00;101286.00;5048240;28;45471;-82
2023/08/04 07:54:26;;;;;;;;;16.00;12.00;;;;;23.10;100.00;101290.13;5048368;28;45429;-80
2023/08/04 07:56:51;;;;;;;;;15.33;14.00;;;;;23.13;100.00;101295.44;5045531;28;47259;-83
2023/08/04 07:59:16;;;;;;;;;14.00;13.00;;;;;23.19;100.00;101289.84;5047350;28;53806;-84
2023/08/04 08:01:42;;;;;;;;;13.00;10.33;;;;;23.21;100.00;101294.22;5047455;28;45707;-79
2023/08/04 08:04:07;;;;;;;;;13.33;12.00;;;;;23.28;100.00;101292.22;5047912;28;45574;-82
2023/08/04 08:06:32;;;;;;;;;12.33;11.67;;;;;23.28;100.00;101284.16;5045464;28;47372;-81
2023/08/04 08:08:58;;;;;;;;;14.00;13.33;;;;;23.36;100.00;101303.59;5049694;28;45453;-80
2023/08/04 08:11:23;;;;;;;;;14.33;12.67;;;;;23.38;100.00;101304.41;5049198;28;46606;-83
2023/08/04 08:13:48;;;;;;;;;13.67;13.67;;;;;23.48;100.00;101310.38;5047651;28;49468;-83
2023/08/04 08:16:15;;;;;;;;;15.33;14.67;;;;;23.47;100.00;101312.19;5050401;28;47244;-83
2023/08/04 08:18:41;;;;;;;;;14.00;11.33;;;;;23.46;100.00;101306.88;5050899;28;45465;-82
2023/08/04 08:21:08;;;;;;;;;12.67;10.33;;;;;23.50;100.00;101311.22;5050604;28;45454;-81
2023/08/04 08:23:33;;;;;;;;;14.00;13.00;;;;;23.53;100.00;101308.41;5051469;28;45458;-80
2023/08/04 08:25:58;;;;;;;;;11.67;10.00;;;;;23.60;100.00;101320.75;5049929;28;46171;-81
2023/08/04 08:28:24;;;;;;;;;11.00;11.00;;;;;23.55;100.00;101317.34;5050787;28;64606;-82
2023/08/04 08:30:49;;;;;;;;;12.33;11.00;;;;;23.56;100.00;101319.09;5050185;28;61295;-81
2023/08/04 08:33:14;;;;;;;;;13.33;11.33;;;;;23.51;100.00;101316.56;5051182;28;60457;-81
2023/08/04 08:35:40;;;;;;;;;13.67;11.67;;;;;23.54;100.00;101318.25;5050601;28;65450;-82
2023/08/04 08:38:05;;;;;;;;;12.00;10.00;;;;;23.48;100.00;101330.13;5049970;28;66636;-82
2023/08/04 08:40:30;;;;;;;;;13.00;11.67;;;;;23.53;100.00;101328.16;5050625;28;62897;-80
2023/08/04 08:42:57;;;;;;;;;13.67;10.00;;;;;23.67;100.00;101326.84;5050954;28;45670;-81
2023/08/04 08:45:27;;;;;;;;;9.33;8.67;;;;;23.83;100.00;101322.66;5050790;28;46700;-81
2023/08/04 08:47:53;;;;;;;;;12.00;9.33;;;;;23.90;100.00;101331.41;5051167;28;45738;-81
2023/08/04 08:50:22;;;;;;;;;8.33;7.33;;;;;24.01;100.00;101340.84;5050982;28;45443;-81
2023/08/04 08:52:51;;;;;;;;;9.33;9.33;;;;;24.12;100.00;101331.47;5049125;28;45636;-82
2023/08/04 08:55:17;;;;;;;;;8.00;7.00;;;;;24.23;100.00;101332.81;5048464;28;47715;-81
2023/08/04 08:57:43;;;;;;;;;8.00;8.00;;;;;24.33;100.00;101336.06;5049545;28;45450;-81
2023/08/04 09:00:09;;;;;;;;;9.00;8.67;;;;;24.29;100.00;101334.44;5050470;28;46300;-81
2023/08/04 09:02:36;;;;;;;;;15.00;7.00;;;;;24.34;100.00;101336.94;5051264;28;45979;-82
2023/08/04 09:05:03;;;;;;;;;10.33;7.00;;;;;24.32;100.00;101339.72;5050326;28;46736;-81
2023/08/04 09:07:29;;;;;;;;;7.67;7.00;;;;;24.37;100.00;101343.16;5050262;28;45414;-82
2023/08/04 09:09:54;;;;;;;;;8.00;8.00;;;;;24.34;100.00;101345.03;5049897;28;45961;-83
2023/08/04 09:12:20;;;;;;;;;6.67;6.67;;;;;24.37;100.00;101337.75;5041520;28;45560;-83
2023/08/04 09:14:53;;;;;;;;;11.33;7.00;;;;;24.31;100.00;101338.84;5049619;28;51667;-81
2023/08/04 09:17:36;;;;;;;;;10.00;6.67;;;;;24.29;100.00;101340.72;5048331;28;46683;-82
2023/08/04 09:20:06;;;;;;;;;10.33;8.00;;;;;24.27;100.00;101347.97;5048995;28;45485;-81
2023/08/04 09:22:35;;;;;;;;;8.00;8.00;;;;;24.30;100.00;101352.41;5049550;28;45484;-81
2023/08/04 09:25:05;;;;;;;;;5.00;5.00;;;;;24.38;100.00;101354.81;5048642;28;47598;-81
2023/08/04 09:27:34;;;;;;;;;7.67;7.33;;;;;24.39;100.00;101349.34;5046986;28;46165;-82
2023/08/04 09:30:02;;;;;;;;;8.33;6.33;;;;;24.36;100.00;101344.09;5049876;28;45855;-81
2023/08/04 09:32:28;;;;;;;;;10.67;9.00;;;;;24.29;100.00;101338.03;5048470;28;45547;-80
2023/08/04 09:35:03;;;;;;;;;8.33;8.33;;;;;24.36;100.00;101343.22;5050896;28;47421;-83
2023/08/04 09:37:33;;;;;;;;;6.67;6.67;;;;;24.36;100.00;101338.69;5051510;27;45474;-81
2023/08/04 09:40:00;;;;;;;;;10.00;7.00;;;;;24.31;100.00;101337.97;5049611;28;46407;-82
2023/08/04 09:42:25;;;;;;;;;8.00;8.00;;;;;24.48;100.00;101340.03;5046048;28;45616;-83
2023/08/04 09:44:52;;;;;;;;;7.00;7.00;;;;;24.55;100.00;101328.03;5048005;28;48168;-81
2023/08/04 09:47:21;;;;;;;;;7.00;7.00;;;;;24.81;100.00;101316.22;5049908;28;45976;-81
2023/08/04 09:49:46;;;;;;;;;6.00;6.00;;;;;25.18;100.00;101329.13;5050228;28;45502;-82
2023/08/04 09:52:18;;;;;;;;;9.00;6.00;;;;;25.23;100.00;101320.81;5050090;28;46804;-81
2023/08/04 09:54:43;;;;;;;;;6.67;6.67;;;;;25.26;100.00;101307.19;5049453;28;45534;-81
2023/08/04 09:57:09;;;;;;;;;5.33;5.33;;;;;25.19;100.00;101316.47;5048093;28;66089;-81
2023/08/04 09:59:34;;;;;;;;;7.00;6.00;;;;;25.07;100.00;101317.88;5049590;28;46455;-83
2023/08/04 10:02:00;;;;;;;;;7.67;7.00;;;;;24.93;100.00;101313.03;5044320;28;62721;-81
2023/08/04 10:04:26;;;;;;;;;6.00;6.00;;;;;24.78;100.00;101322.63;5045102;28;71974;-82
2023/08/04 10:06:53;;;;;;;;;8.00;7.00;;;;;24.68;100.00;101323.06;5047836;28;45519;-82
2023/08/04 10:09:19;;;;;;;;;8.00;6.67;;;;;24.53;100.00;101317.31;5043316;28;66937;-82
2023/08/04 10:11:44;;;;;;;;;7.00;6.00;;;;;24.47;100.00;101325.66;5047946;28;61818;-83
2023/08/04 10:14:10;;;;;;;;;9.00;7.33;;;;;24.41;100.00;101330.44;5047046;28;68993;-81
2023/08/04 10:16:37;;;;;;;;;8.00;7.00;;;;;24.33;100.00;101338.75;5047486;28;46493;-81
2023/08/04 10:19:04;;;;;;;;;5.00;5.00;;;;;24.34;100.00;101334.25;5047271;28;45967;-81
2023/08/04 10:21:37;;;;;;;;;5.67;5.67;;;;;24.33;100.00;101337.88;5049031;28;46067;-81
2023/08/04 10:24:03;;;;;;;;;8.67;8.67;;;;;24.35;100.00;101342.34;5047147;28;46963;-81
2023/08/04 10:26:32;;;;;;;;;7.67;7.00;;;;;24.40;100.00;101325.97;5048733;28;46054;-82
2023/08/04 10:29:03;;;;;;;;;6.00;6.00;;;;;24.51;100.00;101324.63;5049055;28;45532;-81
2023/08/04 10:31:52;;;;;;;;;8.00;7.33;;;;;24.67;100.00;101321.31;5047845;28;46781;-80
2023/08/04 10:34:23;;;;;;;;;4.33;4.00;;;;;24.82;100.00;101313.47;5034493;28;45573;-81
2023/08/04 10:37:04;;;;;;;;;8.00;5.33;;;;;25.04;100.00;101313.47;5053053;28;46060;-82
2023/08/04 10:39:33;;;;;;;;;6.00;6.00;;;;;25.23;100.00;101307.31;5046577;28;45509;-81
2023/08/04 10:41:59;;;;;;;;;6.33;6.33;;;;;25.52;100.00;101314.19;5049087;28;45603;-82
2023/08/04 10:44:55;;;;;;;;;5.67;5.67;;;;;25.71;100.00;101304.28;5047997;28;47604;-81
2023/08/04 10:47:44;;;;;;;;;5.00;5.00;;;;;25.67;100.00;101313.47;5047612;28;45845;-80
2023/08/04 10:50:10;;;;;;;;;7.00;7.00;;;;;25.53;100.00;101315.94;5047231;28;45876;-81
2023/08/04 10:52:36;;;;;;;;;6.33;6.33;;;;;25.44;100.00;101311.78;5048973;28;45383;-81
2023/08/04 10:55:04;;;;;;;;;6.33;5.33;;;;;25.47;100.00;101314.38;5048846;28;47718;-80
2023/08/04 10:57:33;;;;;;;;;6.00;6.00;;;;;25.44;100.00;101325.31;5047487;28;45530;-81
2023/08/04 11:00:00;;;;;;;;;5.67;5.00;;;;;25.51;100.00;101328.63;5048774;28;45536;-79
2023/08/04 11:02:26;;;;;;;;;4.67;4.67;;;;;25.52;100.00;101325.00;5047917;28;45978;-79
2023/08/04 11:04:52;;;;;;;;;6.67;6.00;;;;;25.61;100.00;101328.16;5047605;28;64805;-79